Kezdőlap
METAR-TAF:

METAR-TAF

Repülőterek :

Kingston, Ontario, Kanada

földrajzi szélesség: 44-13N, földrajzi hosszúság: 076-36W, magasság: 93 m

Jelenlegi meteorológiai megfigyelések

A jelentés 22 perccel ezelõtt készült, 21:00 UTC
Déli szél 6 kt
Hőmérséklet 30°C
Páratartalom 62%
Légköri nyomás 1013 hPa
Látótávolság: 24.1 km
Kevés felhő 3200 lábon, Tornyos gomolyfelhő.
Kevés felhő 21000 lábon

METAR: CYGK 092100Z 17006KT 15SM FEW032TCU FEW210 30/22 A2992 RMK TCU1CI1 CI TR SLP131 DENSITY ALT 2200FT

Idő: 17:22 (21:22 UTC)

Előrejelzés

A jelentés 1 órával és 43 perccel ezelõtt készült, 19:39 UTC
Az előrejelzés 09-én 20 óra UTC és 10-én 03 óra UTC között érvényes
Déli szél 8 kt
Látótávolság: 10 km
Kevés felhő 4000 lábon
Kevés felhő 25000 lábon

TAF: CYGK 091939Z 0920/1003 19008KT P6SM FEW040 FEW250 RMK NXT FCST WILL BE ISSUED AT 101145Z

Meteorológiai megfigyelések és előrejelzések több, mint 4000 repülőtéren (METAR és TAF jelentéseket).

A térképen piros és sárga pontok jelzik az elérhető meteorológiai állomásokat.

Mozgassa az egeret a pont fölött, hogy megjelenjen az állomás neve.

Azután kattintson az időjárási megfigyelések és előrejelzések megtekintéséhez.

A térkép megváltoztatása: kattintson a fekete keresztel jelölt zöld gombra ráközelítéshez, a vonallal jelölt zöld gombra távolításhoz, vagy a zöld nyilakra a szomszédos térképek eléréséhez.


METAR-TAF: